sensor_id;sensor_type;location;lat;lon;timestamp;temperature;humidity
47174;DHT22;36730;49.036;9.094;2023-08-17T00:02:00;28.30;93.10
47174;DHT22;36730;49.036;9.094;2023-08-17T00:04:25;28.30;93.20
47174;DHT22;36730;49.036;9.094;2023-08-17T00:06:51;28.30;93.30
47174;DHT22;36730;49.036;9.094;2023-08-17T00:09:16;28.30;93.20
47174;DHT22;36730;49.036;9.094;2023-08-17T00:11:42;28.30;93.20
47174;DHT22;36730;49.036;9.094;2023-08-17T00:14:07;28.30;93.20
47174;DHT22;36730;49.036;9.094;2023-08-17T00:16:33;28.30;93.20
47174;DHT22;36730;49.036;9.094;2023-08-17T00:18:58;28.20;93.20
47174;DHT22;36730;49.036;9.094;2023-08-17T00:21:23;28.20;93.20
47174;DHT22;36730;49.036;9.094;2023-08-17T00:23:49;28.20;93.10
47174;DHT22;36730;49.036;9.094;2023-08-17T00:26:15;28.20;93.10
47174;DHT22;36730;49.036;9.094;2023-08-17T00:28:40;28.20;93.10
47174;DHT22;36730;49.036;9.094;2023-08-17T00:31:06;28.20;93.20
47174;DHT22;36730;49.036;9.094;2023-08-17T00:33:31;28.20;93.10
47174;DHT22;36730;49.036;9.094;2023-08-17T00:35:57;28.20;93.10
47174;DHT22;36730;49.036;9.094;2023-08-17T00:38:22;28.20;93.10
47174;DHT22;36730;49.036;9.094;2023-08-17T00:40:48;28.10;93.10
47174;DHT22;36730;49.036;9.094;2023-08-17T00:43:13;28.20;93.20
47174;DHT22;36730;49.036;9.094;2023-08-17T00:45:39;28.20;93.10
47174;DHT22;36730;49.036;9.094;2023-08-17T00:48:05;28.20;93.10
47174;DHT22;36730;49.036;9.094;2023-08-17T00:50:33;28.10;93.10
47174;DHT22;36730;49.036;9.094;2023-08-17T00:52:59;28.10;93.10
47174;DHT22;36730;49.036;9.094;2023-08-17T00:55:24;28.10;93.00
47174;DHT22;36730;49.036;9.094;2023-08-17T00:57:50;28.10;92.90
47174;DHT22;36730;49.036;9.094;2023-08-17T01:00:17;28.10;92.90
47174;DHT22;36730;49.036;9.094;2023-08-17T01:02:43;28.10;92.90
47174;DHT22;36730;49.036;9.094;2023-08-17T01:05:09;28.10;92.80
47174;DHT22;36730;49.036;9.094;2023-08-17T01:07:35;28.10;92.80
47174;DHT22;36730;49.036;9.094;2023-08-17T01:10:00;28.10;92.80
47174;DHT22;36730;49.036;9.094;2023-08-17T01:13:12;28.10;92.90
47174;DHT22;36730;49.036;9.094;2023-08-17T01:15:16;28.10;92.90
47174;DHT22;36730;49.036;9.094;2023-08-17T01:17:44;28.10;92.80
47174;DHT22;36730;49.036;9.094;2023-08-17T01:20:11;28.00;92.80
47174;DHT22;36730;49.036;9.094;2023-08-17T01:22:40;28.00;92.90
47174;DHT22;36730;49.036;9.094;2023-08-17T01:25:06;28.00;92.90
47174;DHT22;36730;49.036;9.094;2023-08-17T01:27:38;28.00;92.90
47174;DHT22;36730;49.036;9.094;2023-08-17T01:30:04;28.00;92.80
47174;DHT22;36730;49.036;9.094;2023-08-17T01:32:33;28.00;92.90
47174;DHT22;36730;49.036;9.094;2023-08-17T01:35:04;28.00;93.00
47174;DHT22;36730;49.036;9.094;2023-08-17T01:37:31;28.00;92.90
47174;DHT22;36730;49.036;9.094;2023-08-17T01:39:58;28.00;93.10
47174;DHT22;36730;49.036;9.094;2023-08-17T01:42:24;28.00;92.90
47174;DHT22;36730;49.036;9.094;2023-08-17T01:44:50;28.00;93.10
47174;DHT22;36730;49.036;9.094;2023-08-17T01:47:15;28.00;93.00
47174;DHT22;36730;49.036;9.094;2023-08-17T01:49:41;28.00;93.00
47174;DHT22;36730;49.036;9.094;2023-08-17T01:52:06;28.00;93.00
47174;DHT22;36730;49.036;9.094;2023-08-17T01:54:32;28.00;93.10
47174;DHT22;36730;49.036;9.094;2023-08-17T01:56:57;27.90;93.10
47174;DHT22;36730;49.036;9.094;2023-08-17T01:59:22;28.00;93.20
47174;DHT22;36730;49.036;9.094;2023-08-17T02:01:48;28.00;93.20
47174;DHT22;36730;49.036;9.094;2023-08-17T02:04:14;28.00;93.20
47174;DHT22;36730;49.036;9.094;2023-08-17T02:06:39;28.00;93.10
47174;DHT22;36730;49.036;9.094;2023-08-17T02:09:05;28.00;93.20
47174;DHT22;36730;49.036;9.094;2023-08-17T02:11:31;28.00;93.10
47174;DHT22;36730;49.036;9.094;2023-08-17T02:13:56;28.00;93.20
47174;DHT22;36730;49.036;9.094;2023-08-17T02:16:21;28.00;93.10
47174;DHT22;36730;49.036;9.094;2023-08-17T02:18:47;28.00;93.20
47174;DHT22;36730;49.036;9.094;2023-08-17T02:21:12;28.00;93.30
47174;DHT22;36730;49.036;9.094;2023-08-17T02:23:38;28.00;93.20
47174;DHT22;36730;49.036;9.094;2023-08-17T02:26:03;28.00;93.20
47174;DHT22;36730;49.036;9.094;2023-08-17T02:28:29;27.90;93.20
47174;DHT22;36730;49.036;9.094;2023-08-17T02:30:55;27.90;93.10
47174;DHT22;36730;49.036;9.094;2023-08-17T02:33:20;27.90;93.10
47174;DHT22;36730;49.036;9.094;2023-08-17T02:35:48;28.00;93.10
47174;DHT22;36730;49.036;9.094;2023-08-17T02:38:14;27.90;93.10
47174;DHT22;36730;49.036;9.094;2023-08-17T02:40:39;27.90;93.00
47174;DHT22;36730;49.036;9.094;2023-08-17T02:43:05;27.90;93.10
47174;DHT22;36730;49.036;9.094;2023-08-17T02:45:30;27.90;93.20
47174;DHT22;36730;49.036;9.094;2023-08-17T02:47:56;27.90;93.10
47174;DHT22;36730;49.036;9.094;2023-08-17T02:50:21;27.90;93.20
47174;DHT22;36730;49.036;9.094;2023-08-17T02:52:46;27.90;93.20
47174;DHT22;36730;49.036;9.094;2023-08-17T02:55:12;27.90;93.20
47174;DHT22;36730;49.036;9.094;2023-08-17T02:57:37;27.90;93.20
47174;DHT22;36730;49.036;9.094;2023-08-17T03:00:03;27.90;93.10
47174;DHT22;36730;49.036;9.094;2023-08-17T03:02:29;27.90;93.10
47174;DHT22;36730;49.036;9.094;2023-08-17T03:04:54;27.90;93.10
47174;DHT22;36730;49.036;9.094;2023-08-17T03:07:20;27.90;93.30
47174;DHT22;36730;49.036;9.094;2023-08-17T03:09:45;27.90;93.10
47174;DHT22;36730;49.036;9.094;2023-08-17T03:12:11;27.90;93.10
47174;DHT22;36730;49.036;9.094;2023-08-17T03:14:36;27.90;93.30
47174;DHT22;36730;49.036;9.094;2023-08-17T03:17:01;27.90;93.30
47174;DHT22;36730;49.036;9.094;2023-08-17T03:19:27;27.80;93.30
47174;DHT22;36730;49.036;9.094;2023-08-17T03:21:52;27.80;93.30
47174;DHT22;36730;49.036;9.094;2023-08-17T03:24:18;27.80;93.40
47174;DHT22;36730;49.036;9.094;2023-08-17T03:26:43;27.90;93.30
47174;DHT22;36730;49.036;9.094;2023-08-17T03:29:09;27.90;93.30
47174;DHT22;36730;49.036;9.094;2023-08-17T03:31:35;27.80;93.30
47174;DHT22;36730;49.036;9.094;2023-08-17T03:34:00;27.80;93.30
47174;DHT22;36730;49.036;9.094;2023-08-17T03:36:26;27.80;93.40
47174;DHT22;36730;49.036;9.094;2023-08-17T03:38:51;27.80;93.30
47174;DHT22;36730;49.036;9.094;2023-08-17T03:41:17;27.70;93.30
47174;DHT22;36730;49.036;9.094;2023-08-17T03:43:43;27.80;93.20
47174;DHT22;36730;49.036;9.094;2023-08-17T03:46:08;27.70;93.50
47174;DHT22;36730;49.036;9.094;2023-08-17T03:48:34;27.70;93.60
47174;DHT22;36730;49.036;9.094;2023-08-17T03:50:59;27.70;93.50
47174;DHT22;36730;49.036;9.094;2023-08-17T03:53:26;27.60;93.50
47174;DHT22;36730;49.036;9.094;2023-08-17T03:55:52;27.60;93.60
47174;DHT22;36730;49.036;9.094;2023-08-17T03:58:18;27.50;94.20
47174;DHT22;36730;49.036;9.094;2023-08-17T04:00:50;27.50;94.10
47174;DHT22;36730;49.036;9.094;2023-08-17T04:03:16;27.40;94.30
47174;DHT22;36730;49.036;9.094;2023-08-17T04:05:41;27.30;94.50
47174;DHT22;36730;49.036;9.094;2023-08-17T04:08:07;27.30;94.50
47174;DHT22;36730;49.036;9.094;2023-08-17T04:10:32;27.20;94.60
47174;DHT22;36730;49.036;9.094;2023-08-17T04:12:58;27.20;95.10
47174;DHT22;36730;49.036;9.094;2023-08-17T04:15:23;27.10;95.30
47174;DHT22;36730;49.036;9.094;2023-08-17T04:17:49;27.00;95.60
47174;DHT22;36730;49.036;9.094;2023-08-17T04:20:14;27.00;96.00
47174;DHT22;36730;49.036;9.094;2023-08-17T04:22:40;26.90;96.60
47174;DHT22;36730;49.036;9.094;2023-08-17T04:25:05;26.90;96.30
47174;DHT22;36730;49.036;9.094;2023-08-17T04:27:31;26.80;96.90
47174;DHT22;36730;49.036;9.094;2023-08-17T04:29:56;26.80;97.00
47174;DHT22;36730;49.036;9.094;2023-08-17T04:32:22;26.70;97.20
47174;DHT22;36730;49.036;9.094;2023-08-17T04:34:47;26.70;97.00
47174;DHT22;36730;49.036;9.094;2023-08-17T04:37:13;26.70;97.40
47174;DHT22;36730;49.036;9.094;2023-08-17T04:39:39;26.70;97.50
47174;DHT22;36730;49.036;9.094;2023-08-17T04:42:06;26.60;97.40
47174;DHT22;36730;49.036;9.094;2023-08-17T04:44:31;26.60;97.40
47174;DHT22;36730;49.036;9.094;2023-08-17T04:46:57;26.70;97.10
47174;DHT22;36730;49.036;9.094;2023-08-17T04:49:23;26.70;97.20
47174;DHT22;36730;49.036;9.094;2023-08-17T04:51:48;26.70;97.00
47174;DHT22;36730;49.036;9.094;2023-08-17T04:54:14;26.70;96.90
47174;DHT22;36730;49.036;9.094;2023-08-17T04:56:39;26.70;97.60
47174;DHT22;36730;49.036;9.094;2023-08-17T04:59:05;26.70;97.50
47174;DHT22;36730;49.036;9.094;2023-08-17T05:01:31;26.70;97.40
47174;DHT22;36730;49.036;9.094;2023-08-17T05:03:57;26.70;97.50
47174;DHT22;36730;49.036;9.094;2023-08-17T05:06:22;26.60;97.50
47174;DHT22;36730;49.036;9.094;2023-08-17T05:08:48;26.60;97.30
47174;DHT22;36730;49.036;9.094;2023-08-17T05:11:13;26.60;97.30
47174;DHT22;36730;49.036;9.094;2023-08-17T05:13:39;26.60;97.30
47174;DHT22;36730;49.036;9.094;2023-08-17T05:16:04;26.50;96.90
47174;DHT22;36730;49.036;9.094;2023-08-17T05:18:30;26.50;97.30
47174;DHT22;36730;49.036;9.094;2023-08-17T05:20:56;26.40;97.00
47174;DHT22;36730;49.036;9.094;2023-08-17T05:23:21;26.40;97.10
47174;DHT22;36730;49.036;9.094;2023-08-17T05:25:47;26.40;96.90
47174;DHT22;36730;49.036;9.094;2023-08-17T05:28:13;26.40;97.10
47174;DHT22;36730;49.036;9.094;2023-08-17T05:30:38;26.30;97.40
47174;DHT22;36730;49.036;9.094;2023-08-17T05:33:04;26.40;97.20
47174;DHT22;36730;49.036;9.094;2023-08-17T05:35:29;26.30;97.30
47174;DHT22;36730;49.036;9.094;2023-08-17T05:37:55;26.30;97.90
47174;DHT22;36730;49.036;9.094;2023-08-17T05:40:20;26.30;97.90
47174;DHT22;36730;49.036;9.094;2023-08-17T05:42:46;26.20;97.80
47174;DHT22;36730;49.036;9.094;2023-08-17T05:45:11;26.20;98.50
47174;DHT22;36730;49.036;9.094;2023-08-17T05:47:37;26.20;97.80
47174;DHT22;36730;49.036;9.094;2023-08-17T05:50:02;26.20;97.60
47174;DHT22;36730;49.036;9.094;2023-08-17T05:52:28;26.20;97.60
47174;DHT22;36730;49.036;9.094;2023-08-17T05:54:53;26.20;97.70
47174;DHT22;36730;49.036;9.094;2023-08-17T05:57:19;26.20;97.60
47174;DHT22;36730;49.036;9.094;2023-08-17T05:59:44;26.20;97.30
47174;DHT22;36730;49.036;9.094;2023-08-17T06:02:10;26.20;97.60
47174;DHT22;36730;49.036;9.094;2023-08-17T06:04:35;26.20;97.50
47174;DHT22;36730;49.036;9.094;2023-08-17T06:07:01;26.20;97.30
47174;DHT22;36730;49.036;9.094;2023-08-17T06:09:26;26.20;97.60
47174;DHT22;36730;49.036;9.094;2023-08-17T06:11:52;26.20;97.50
47174;DHT22;36730;49.036;9.094;2023-08-17T06:14:17;26.10;97.50
47174;DHT22;36730;49.036;9.094;2023-08-17T06:16:43;26.10;97.50
47174;DHT22;36730;49.036;9.094;2023-08-17T06:19:08;26.10;97.70
47174;DHT22;36730;49.036;9.094;2023-08-17T06:21:34;26.10;98.00
47174;DHT22;36730;49.036;9.094;2023-08-17T06:23:59;26.00;98.00
47174;DHT22;36730;49.036;9.094;2023-08-17T06:26:25;26.10;97.90
47174;DHT22;36730;49.036;9.094;2023-08-17T06:28:50;26.10;97.70
47174;DHT22;36730;49.036;9.094;2023-08-17T06:31:15;26.10;97.70
47174;DHT22;36730;49.036;9.094;2023-08-17T06:33:41;26.10;97.70
47174;DHT22;36730;49.036;9.094;2023-08-17T06:36:06;26.10;98.00
47174;DHT22;36730;49.036;9.094;2023-08-17T06:38:32;26.00;98.00
47174;DHT22;36730;49.036;9.094;2023-08-17T06:40:57;26.10;98.20
47174;DHT22;36730;49.036;9.094;2023-08-17T06:43:23;26.00;98.30
47174;DHT22;36730;49.036;9.094;2023-08-17T06:45:48;26.00;98.30
47174;DHT22;36730;49.036;9.094;2023-08-17T06:48:14;26.10;98.10
47174;DHT22;36730;49.036;9.094;2023-08-17T06:50:39;26.10;98.30
47174;DHT22;36730;49.036;9.094;2023-08-17T06:53:05;26.10;98.20
47174;DHT22;36730;49.036;9.094;2023-08-17T06:55:30;26.10;98.40
47174;DHT22;36730;49.036;9.094;2023-08-17T06:57:56;26.10;98.50
47174;DHT22;36730;49.036;9.094;2023-08-17T07:00:22;26.10;99.10
47174;DHT22;36730;49.036;9.094;2023-08-17T07:02:48;26.10;99.20
47174;DHT22;36730;49.036;9.094;2023-08-17T07:05:14;26.10;99.00
47174;DHT22;36730;49.036;9.094;2023-08-17T07:07:40;26.10;99.00
47174;DHT22;36730;49.036;9.094;2023-08-17T07:10:05;26.10;98.80
47174;DHT22;36730;49.036;9.094;2023-08-17T07:12:32;26.20;98.70
47174;DHT22;36730;49.036;9.094;2023-08-17T07:14:57;26.20;98.60
47174;DHT22;36730;49.036;9.094;2023-08-17T07:17:23;26.20;98.60
47174;DHT22;36730;49.036;9.094;2023-08-17T07:19:49;26.30;98.60
47174;DHT22;36730;49.036;9.094;2023-08-17T07:22:14;26.30;98.60
47174;DHT22;36730;49.036;9.094;2023-08-17T07:24:41;26.30;98.90
47174;DHT22;36730;49.036;9.094;2023-08-17T07:27:07;26.30;99.10
47174;DHT22;36730;49.036;9.094;2023-08-17T07:29:32;26.30;98.80
47174;DHT22;36730;49.036;9.094;2023-08-17T07:31:58;26.30;98.50
47174;DHT22;36730;49.036;9.094;2023-08-17T07:34:26;26.30;98.90
47174;DHT22;36730;49.036;9.094;2023-08-17T07:36:52;26.40;99.10
47174;DHT22;36730;49.036;9.094;2023-08-17T07:39:17;26.30;99.10
47174;DHT22;36730;49.036;9.094;2023-08-17T07:41:44;26.30;98.90
47174;DHT22;36730;49.036;9.094;2023-08-17T07:44:09;26.40;99.00
47174;DHT22;36730;49.036;9.094;2023-08-17T07:46:35;26.30;99.00
47174;DHT22;36730;49.036;9.094;2023-08-17T07:49:00;26.40;98.80
47174;DHT22;36730;49.036;9.094;2023-08-17T07:51:26;26.40;98.40
47174;DHT22;36730;49.036;9.094;2023-08-17T07:53:51;26.30;98.70
47174;DHT22;36730;49.036;9.094;2023-08-17T07:56:17;26.30;99.00
47174;DHT22;36730;49.036;9.094;2023-08-17T07:58:42;26.20;99.60
47174;DHT22;36730;49.036;9.094;2023-08-17T08:01:08;26.20;99.60
47174;DHT22;36730;49.036;9.094;2023-08-17T08:03:33;26.20;99.70
47174;DHT22;36730;49.036;9.094;2023-08-17T08:05:59;26.20;99.70
47174;DHT22;36730;49.036;9.094;2023-08-17T08:08:24;26.20;99.30
47174;DHT22;36730;49.036;9.094;2023-08-17T08:10:49;26.20;99.60
47174;DHT22;36730;49.036;9.094;2023-08-17T08:13:15;26.30;99.70
47174;DHT22;36730;49.036;9.094;2023-08-17T08:15:40;26.30;99.40
47174;DHT22;36730;49.036;9.094;2023-08-17T08:18:06;26.30;99.10
47174;DHT22;36730;49.036;9.094;2023-08-17T08:20:31;26.20;99.40
47174;DHT22;36730;49.036;9.094;2023-08-17T08:22:57;26.20;99.80
47174;DHT22;36730;49.036;9.094;2023-08-17T08:25:23;26.20;99.80
47174;DHT22;36730;49.036;9.094;2023-08-17T08:27:48;26.20;99.80
47174;DHT22;36730;49.036;9.094;2023-08-17T08:30:14;26.30;99.80
47174;DHT22;36730;49.036;9.094;2023-08-17T08:32:39;26.30;99.50
47174;DHT22;36730;49.036;9.094;2023-08-17T08:35:05;26.30;99.70
47174;DHT22;36730;49.036;9.094;2023-08-17T08:37:30;26.30;99.90
47174;DHT22;36730;49.036;9.094;2023-08-17T08:39:56;26.30;99.60
47174;DHT22;36730;49.036;9.094;2023-08-17T08:42:22;26.30;99.30
47174;DHT22;36730;49.036;9.094;2023-08-17T08:44:49;26.30;99.50
47174;DHT22;36730;49.036;9.094;2023-08-17T08:47:15;26.40;99.20
47174;DHT22;36730;49.036;9.094;2023-08-17T08:52:20;26.40;99.40
47174;DHT22;36730;49.036;9.094;2023-08-17T08:54:49;26.40;99.90
47174;DHT22;36730;49.036;9.094;2023-08-17T08:57:14;26.50;99.90
47174;DHT22;36730;49.036;9.094;2023-08-17T08:59:42;26.50;99.90
47174;DHT22;36730;49.036;9.094;2023-08-17T09:02:14;26.60;99.30
47174;DHT22;36730;49.036;9.094;2023-08-17T09:04:41;26.70;99.30
47174;DHT22;36730;49.036;9.094;2023-08-17T09:07:07;26.70;99.10
47174;DHT22;36730;49.036;9.094;2023-08-17T09:09:34;26.80;99.10
47174;DHT22;36730;49.036;9.094;2023-08-17T09:12:00;26.80;98.80
47174;DHT22;36730;49.036;9.094;2023-08-17T09:14:26;26.90;98.60
47174;DHT22;36730;49.036;9.094;2023-08-17T09:16:51;26.80;98.70
47174;DHT22;36730;49.036;9.094;2023-08-17T09:19:17;26.90;98.90
47174;DHT22;36730;49.036;9.094;2023-08-17T09:21:43;26.90;99.10
47174;DHT22;36730;49.036;9.094;2023-08-17T09:24:09;26.90;98.70
47174;DHT22;36730;49.036;9.094;2023-08-17T09:26:34;27.00;98.80
47174;DHT22;36730;49.036;9.094;2023-08-17T09:29:03;27.00;99.10
47174;DHT22;36730;49.036;9.094;2023-08-17T09:31:41;26.90;98.70
47174;DHT22;36730;49.036;9.094;2023-08-17T09:34:06;27.00;99.10
47174;DHT22;36730;49.036;9.094;2023-08-17T09:36:32;27.00;99.10
47174;DHT22;36730;49.036;9.094;2023-08-17T09:39:00;27.00;99.00
47174;DHT22;36730;49.036;9.094;2023-08-17T09:41:26;27.00;98.80
47174;DHT22;36730;49.036;9.094;2023-08-17T09:43:52;27.10;98.80
47174;DHT22;36730;49.036;9.094;2023-08-17T09:46:19;27.10;98.80
47174;DHT22;36730;49.036;9.094;2023-08-17T09:48:45;27.10;98.70
47174;DHT22;36730;49.036;9.094;2023-08-17T09:51:10;27.20;98.30
47174;DHT22;36730;49.036;9.094;2023-08-17T09:53:39;27.30;98.20
47174;DHT22;36730;49.036;9.094;2023-08-17T09:56:05;27.30;97.90
47174;DHT22;36730;49.036;9.094;2023-08-17T09:58:32;27.30;97.60
47174;DHT22;36730;49.036;9.094;2023-08-17T10:00:58;27.30;97.20
47174;DHT22;36730;49.036;9.094;2023-08-17T10:03:25;27.30;97.20
47174;DHT22;36730;49.036;9.094;2023-08-17T10:05:54;27.40;97.10
47174;DHT22;36730;49.036;9.094;2023-08-17T10:08:21;27.40;96.90
47174;DHT22;36730;49.036;9.094;2023-08-17T10:10:47;27.40;96.80
47174;DHT22;36730;49.036;9.094;2023-08-17T10:13:18;27.40;97.20
47174;DHT22;36730;49.036;9.094;2023-08-17T10:15:51;27.50;96.80
47174;DHT22;36730;49.036;9.094;2023-08-17T10:18:21;27.50;96.30
47174;DHT22;36730;49.036;9.094;2023-08-17T10:20:54;27.50;96.70
47174;DHT22;36730;49.036;9.094;2023-08-17T10:23:25;27.50;96.50
47174;DHT22;36730;49.036;9.094;2023-08-17T10:25:51;27.50;96.50
47174;DHT22;36730;49.036;9.094;2023-08-17T10:28:17;27.50;95.90
47174;DHT22;36730;49.036;9.094;2023-08-17T10:30:43;27.50;96.30
47174;DHT22;36730;49.036;9.094;2023-08-17T10:33:09;27.60;96.40
47174;DHT22;36730;49.036;9.094;2023-08-17T10:35:35;27.60;96.10
47174;DHT22;36730;49.036;9.094;2023-08-17T10:38:01;27.60;95.60
47174;DHT22;36730;49.036;9.094;2023-08-17T10:40:27;27.60;95.30
47174;DHT22;36730;49.036;9.094;2023-08-17T10:42:54;27.70;95.20
47174;DHT22;36730;49.036;9.094;2023-08-17T10:50:34;27.80;94.70
47174;DHT22;36730;49.036;9.094;2023-08-17T10:53:17;27.80;94.40
47174;DHT22;36730;49.036;9.094;2023-08-17T10:55:45;27.90;94.10
47174;DHT22;36730;49.036;9.094;2023-08-17T10:58:14;27.90;94.30
47174;DHT22;36730;49.036;9.094;2023-08-17T11:00:40;28.00;93.50
47174;DHT22;36730;49.036;9.094;2023-08-17T11:03:16;28.00;93.60
47174;DHT22;36730;49.036;9.094;2023-08-17T11:05:46;28.10;93.30
47174;DHT22;36730;49.036;9.094;2023-08-17T11:08:27;28.10;93.00
47174;DHT22;36730;49.036;9.094;2023-08-17T11:13:31;28.20;93.00
47174;DHT22;36730;49.036;9.094;2023-08-17T11:15:58;28.20;92.60
47174;DHT22;36730;49.036;9.094;2023-08-17T11:18:24;28.20;92.70
47174;DHT22;36730;49.036;9.094;2023-08-17T11:20:49;28.30;92.50
47174;DHT22;36730;49.036;9.094;2023-08-17T11:23:15;28.30;93.20
47174;DHT22;36730;49.036;9.094;2023-08-17T11:25:40;28.30;92.90
47174;DHT22;36730;49.036;9.094;2023-08-17T11:28:07;28.30;92.80
47174;DHT22;36730;49.036;9.094;2023-08-17T11:30:34;28.30;92.60
47174;DHT22;36730;49.036;9.094;2023-08-17T11:33:01;28.40;92.50
47174;DHT22;36730;49.036;9.094;2023-08-17T11:35:26;28.40;92.70
47174;DHT22;36730;49.036;9.094;2023-08-17T11:37:52;28.40;93.20
47174;DHT22;36730;49.036;9.094;2023-08-17T11:40:17;28.50;92.90
47174;DHT22;36730;49.036;9.094;2023-08-17T11:42:43;28.50;92.60
47174;DHT22;36730;49.036;9.094;2023-08-17T11:45:08;28.50;92.30
47174;DHT22;36730;49.036;9.094;2023-08-17T11:47:43;28.60;92.70
47174;DHT22;36730;49.036;9.094;2023-08-17T11:50:12;28.60;92.40
47174;DHT22;36730;49.036;9.094;2023-08-17T11:52:37;28.60;92.80
47174;DHT22;36730;49.036;9.094;2023-08-17T11:55:07;28.60;92.10
47174;DHT22;36730;49.036;9.094;2023-08-17T11:57:34;28.60;92.60
47174;DHT22;36730;49.036;9.094;2023-08-17T12:00:00;28.60;92.60
47174;DHT22;36730;49.036;9.094;2023-08-17T12:02:28;28.60;92.70
47174;DHT22;36730;49.036;9.094;2023-08-17T12:04:55;28.70;92.70
47174;DHT22;36730;49.036;9.094;2023-08-17T12:07:21;28.70;92.70
47174;DHT22;36730;49.036;9.094;2023-08-17T12:09:48;28.70;92.50
47174;DHT22;36730;49.036;9.094;2023-08-17T12:12:23;28.80;93.20
47174;DHT22;36730;49.036;9.094;2023-08-17T12:14:49;28.80;92.40
47174;DHT22;36730;49.036;9.094;2023-08-17T12:17:15;28.80;93.40
47174;DHT22;36730;49.036;9.094;2023-08-17T12:19:41;28.80;93.00
47174;DHT22;36730;49.036;9.094;2023-08-17T12:22:07;28.70;93.00
47174;DHT22;36730;49.036;9.094;2023-08-17T12:24:32;28.80;93.10
47174;DHT22;36730;49.036;9.094;2023-08-17T12:27:00;28.80;93.00
47174;DHT22;36730;49.036;9.094;2023-08-17T12:29:26;28.80;92.50
47174;DHT22;36730;49.036;9.094;2023-08-17T12:31:51;28.80;92.20
47174;DHT22;36730;49.036;9.094;2023-08-17T12:34:17;28.80;92.00
47174;DHT22;36730;49.036;9.094;2023-08-17T12:36:43;28.80;92.50
47174;DHT22;36730;49.036;9.094;2023-08-17T12:39:08;28.90;92.60
47174;DHT22;36730;49.036;9.094;2023-08-17T12:41:34;28.90;93.20
47174;DHT22;36730;49.036;9.094;2023-08-17T12:43:59;28.80;93.30
47174;DHT22;36730;49.036;9.094;2023-08-17T12:46:26;28.80;93.40
47174;DHT22;36730;49.036;9.094;2023-08-17T12:48:52;28.80;93.60
47174;DHT22;36730;49.036;9.094;2023-08-17T12:51:17;28.80;93.50
47174;DHT22;36730;49.036;9.094;2023-08-17T12:53:42;28.80;93.80
47174;DHT22;36730;49.036;9.094;2023-08-17T12:56:08;28.80;93.90
47174;DHT22;36730;49.036;9.094;2023-08-17T12:58:34;28.80;94.10
47174;DHT22;36730;49.036;9.094;2023-08-17T13:00:59;28.80;94.00
47174;DHT22;36730;49.036;9.094;2023-08-17T13:03:24;28.80;94.20
47174;DHT22;36730;49.036;9.094;2023-08-17T13:05:50;28.70;94.00
47174;DHT22;36730;49.036;9.094;2023-08-17T13:08:16;28.70;94.00
47174;DHT22;36730;49.036;9.094;2023-08-17T13:10:41;28.70;94.00
47174;DHT22;36730;49.036;9.094;2023-08-17T13:13:07;28.70;93.90
47174;DHT22;36730;49.036;9.094;2023-08-17T13:15:32;28.70;94.00
47174;DHT22;36730;49.036;9.094;2023-08-17T13:17:58;28.60;93.80
47174;DHT22;36730;49.036;9.094;2023-08-17T13:20:24;28.60;93.80
47174;DHT22;36730;49.036;9.094;2023-08-17T13:22:50;28.50;94.20
47174;DHT22;36730;49.036;9.094;2023-08-17T13:25:15;28.40;93.80
47174;DHT22;36730;49.036;9.094;2023-08-17T13:27:41;28.40;94.00
47174;DHT22;36730;49.036;9.094;2023-08-17T13:30:06;28.30;93.90
47174;DHT22;36730;49.036;9.094;2023-08-17T13:32:32;28.30;94.50
47174;DHT22;36730;49.036;9.094;2023-08-17T13:34:57;28.20;94.70
47174;DHT22;36730;49.036;9.094;2023-08-17T13:37:23;28.10;95.20
47174;DHT22;36730;49.036;9.094;2023-08-17T13:39:49;28.10;95.70
47174;DHT22;36730;49.036;9.094;2023-08-17T13:42:14;28.00;95.00
47174;DHT22;36730;49.036;9.094;2023-08-17T13:44:40;28.10;95.10
47174;DHT22;36730;49.036;9.094;2023-08-17T13:47:05;28.10;95.30
47174;DHT22;36730;49.036;9.094;2023-08-17T13:49:31;28.00;94.90
47174;DHT22;36730;49.036;9.094;2023-08-17T13:51:56;28.10;95.30
47174;DHT22;36730;49.036;9.094;2023-08-17T13:54:22;28.10;94.90
47174;DHT22;36730;49.036;9.094;2023-08-17T13:56:47;28.10;95.20
47174;DHT22;36730;49.036;9.094;2023-08-17T13:59:13;28.20;95.10
47174;DHT22;36730;49.036;9.094;2023-08-17T14:01:38;28.20;94.80
47174;DHT22;36730;49.036;9.094;2023-08-17T14:04:04;28.30;94.80
47174;DHT22;36730;49.036;9.094;2023-08-17T14:06:32;28.30;94.60
47174;DHT22;36730;49.036;9.094;2023-08-17T14:08:57;28.40;94.50
47174;DHT22;36730;49.036;9.094;2023-08-17T14:11:23;28.40;94.50
47174;DHT22;36730;49.036;9.094;2023-08-17T14:13:48;28.50;94.40
47174;DHT22;36730;49.036;9.094;2023-08-17T14:16:14;28.50;94.30
47174;DHT22;36730;49.036;9.094;2023-08-17T14:18:39;28.60;94.10
47174;DHT22;36730;49.036;9.094;2023-08-17T14:21:05;28.60;94.40
47174;DHT22;36730;49.036;9.094;2023-08-17T14:23:30;28.60;94.30
47174;DHT22;36730;49.036;9.094;2023-08-17T14:25:55;28.60;94.10
47174;DHT22;36730;49.036;9.094;2023-08-17T14:28:21;28.60;95.30
47174;DHT22;36730;49.036;9.094;2023-08-17T14:30:46;28.60;95.60
47174;DHT22;36730;49.036;9.094;2023-08-17T14:33:12;28.50;96.10
47174;DHT22;36730;49.036;9.094;2023-08-17T14:35:40;28.50;95.70
47174;DHT22;36730;49.036;9.094;2023-08-17T14:38:06;28.50;95.50
47174;DHT22;36730;49.036;9.094;2023-08-17T14:40:35;28.50;96.10
47174;DHT22;36730;49.036;9.094;2023-08-17T14:43:00;28.50;96.00
47174;DHT22;36730;49.036;9.094;2023-08-17T14:45:25;28.40;96.00
47174;DHT22;36730;49.036;9.094;2023-08-17T14:47:51;28.40;96.20
47174;DHT22;36730;49.036;9.094;2023-08-17T14:50:16;28.40;96.30
47174;DHT22;36730;49.036;9.094;2023-08-17T14:52:42;28.40;96.40
47174;DHT22;36730;49.036;9.094;2023-08-17T14:55:07;28.40;96.20
47174;DHT22;36730;49.036;9.094;2023-08-17T14:57:34;28.50;96.30
47174;DHT22;36730;49.036;9.094;2023-08-17T14:59:59;28.50;96.10
47174;DHT22;36730;49.036;9.094;2023-08-17T15:02:25;28.50;96.10
47174;DHT22;36730;49.036;9.094;2023-08-17T15:04:50;28.50;96.10
47174;DHT22;36730;49.036;9.094;2023-08-17T15:07:16;28.50;96.10
47174;DHT22;36730;49.036;9.094;2023-08-17T15:09:41;28.60;96.10
47174;DHT22;36730;49.036;9.094;2023-08-17T15:12:07;28.60;96.50
47174;DHT22;36730;49.036;9.094;2023-08-17T15:14:32;28.60;96.20
47174;DHT22;36730;49.036;9.094;2023-08-17T15:16:58;28.60;96.40
47174;DHT22;36730;49.036;9.094;2023-08-17T15:19:23;28.70;96.40
47174;DHT22;36730;49.036;9.094;2023-08-17T15:21:49;28.70;96.50
47174;DHT22;36730;49.036;9.094;2023-08-17T15:24:14;28.70;96.30
47174;DHT22;36730;49.036;9.094;2023-08-17T15:26:40;28.70;96.60
47174;DHT22;36730;49.036;9.094;2023-08-17T15:29:05;28.70;96.60
47174;DHT22;36730;49.036;9.094;2023-08-17T15:31:31;28.70;96.80
47174;DHT22;36730;49.036;9.094;2023-08-17T15:33:56;28.70;96.50